createdAt,value
2022-11-04T00:00:59.299Z,976.68
2022-11-04T00:01:59.238Z,976.80
2022-11-04T00:02:59.224Z,976.79
2022-11-04T00:03:59.194Z,976.89
2022-11-04T00:04:59.232Z,976.86
2022-11-04T00:05:59.352Z,976.77
2022-11-04T00:06:59.220Z,976.91
2022-11-04T00:07:59.185Z,976.92
2022-11-04T00:08:59.173Z,976.92
2022-11-04T00:09:59.159Z,976.99
2022-11-04T00:10:59.244Z,976.93
2022-11-04T00:11:59.160Z,976.91
2022-11-04T00:12:59.153Z,976.87
2022-11-04T00:13:59.136Z,977.00
2022-11-04T00:14:59.179Z,977.00
2022-11-04T00:15:59.147Z,977.02
2022-11-04T00:16:59.159Z,976.93
2022-11-04T00:17:59.118Z,976.96
2022-11-04T00:18:59.112Z,976.93
2022-11-04T00:19:59.103Z,976.98
2022-11-04T00:20:59.098Z,977.04
2022-11-04T00:21:59.220Z,976.99
2022-11-04T00:22:59.081Z,976.98
2022-11-04T00:23:59.078Z,977.01
2022-11-04T00:24:59.054Z,977.20
2022-11-04T00:25:59.063Z,977.04
2022-11-04T00:26:59.053Z,977.10
2022-11-04T00:27:59.157Z,977.09
2022-11-04T00:28:59.030Z,977.13
2022-11-04T00:29:59.161Z,977.11
2022-11-04T00:30:59.046Z,977.09
2022-11-04T00:31:59.015Z,977.09
2022-11-04T00:32:59.026Z,977.09
2022-11-04T00:33:59.021Z,977.17
2022-11-04T00:34:59.016Z,977.16
2022-11-04T00:35:59.018Z,977.14
2022-11-04T00:36:58.986Z,977.10
2022-11-04T00:37:58.981Z,977.11
2022-11-04T00:38:59.014Z,977.14
2022-11-04T00:39:59.067Z,977.13
2022-11-04T00:40:58.964Z,977.19
2022-11-04T00:41:58.968Z,977.20
2022-11-04T00:42:58.961Z,977.32
2022-11-04T00:43:58.974Z,977.30
2022-11-04T00:44:59.013Z,977.25
2022-11-04T00:45:59.940Z,977.34
2022-11-04T00:46:58.935Z,977.36
2022-11-04T00:47:58.919Z,977.48
2022-11-04T00:48:58.905Z,977.39
2022-11-04T00:49:58.917Z,977.45
2022-11-04T00:50:58.907Z,977.55
2022-11-04T00:51:58.890Z,977.53
2022-11-04T00:52:58.873Z,977.62
2022-11-04T00:53:58.903Z,977.63
2022-11-04T00:54:58.903Z,977.64
2022-11-04T00:55:58.899Z,977.68
2022-11-04T00:56:58.859Z,977.69
2022-11-04T00:57:58.874Z,977.66
2022-11-04T00:58:58.864Z,977.71
2022-11-04T00:59:58.867Z,977.74
2022-11-04T01:00:58.883Z,977.72
2022-11-04T01:01:58.902Z,977.80
2022-11-04T01:02:58.847Z,977.77
2022-11-04T01:03:58.827Z,977.78
2022-11-04T01:04:58.815Z,977.82
2022-11-04T01:05:58.857Z,977.80
2022-11-04T01:06:59.256Z,977.77
2022-11-04T01:07:58.791Z,977.73
2022-11-04T01:08:58.799Z,977.80
2022-11-04T01:09:58.793Z,977.71
2022-11-04T01:10:58.787Z,977.74
2022-11-04T01:11:58.813Z,977.69
2022-11-04T01:12:58.761Z,977.67
2022-11-04T01:13:58.756Z,977.70
2022-11-04T01:14:58.768Z,977.72
2022-11-04T01:15:58.760Z,977.68
2022-11-04T01:16:58.779Z,977.64
2022-11-04T01:17:58.728Z,977.62
2022-11-04T01:18:58.733Z,977.56
2022-11-04T01:19:58.715Z,977.46
2022-11-04T01:20:58.720Z,977.41
2022-11-04T01:21:58.721Z,977.42
2022-11-04T01:22:58.758Z,977.28
2022-11-04T01:23:58.712Z,977.24
2022-11-04T01:24:58.683Z,977.35
2022-11-04T01:25:58.714Z,977.34
2022-11-04T01:26:58.709Z,977.32
2022-11-04T01:27:58.723Z,977.31
2022-11-04T01:28:58.664Z,977.32
2022-11-04T01:29:58.665Z,977.37
2022-11-04T01:30:58.676Z,977.31
2022-11-04T01:31:58.650Z,977.37
2022-11-04T01:32:58.650Z,977.36
2022-11-04T01:33:58.667Z,977.34
2022-11-04T01:34:58.637Z,977.34
2022-11-04T01:35:58.625Z,977.31
2022-11-04T01:36:58.615Z,977.29
2022-11-04T01:37:58.609Z,977.33
2022-11-04T01:38:58.647Z,977.38
2022-11-04T01:39:58.617Z,977.30
2022-11-04T01:40:58.582Z,977.30
2022-11-04T01:41:58.618Z,977.33
2022-11-04T01:42:58.596Z,977.30
2022-11-04T01:43:58.588Z,977.33
2022-11-04T01:44:58.577Z,977.38
2022-11-04T01:45:58.571Z,977.39
2022-11-04T01:46:58.561Z,977.34
2022-11-04T01:47:58.562Z,977.39
2022-11-04T01:48:58.543Z,977.40
2022-11-04T01:49:58.565Z,977.39
2022-11-04T01:50:58.567Z,977.44
2022-11-04T01:51:58.539Z,977.35
2022-11-04T01:52:58.520Z,977.33
2022-11-04T01:53:58.551Z,977.31
2022-11-04T01:54:58.527Z,977.32
2022-11-04T01:55:58.527Z,977.27
2022-11-04T01:56:58.544Z,977.27
2022-11-04T01:57:58.482Z,977.28
2022-11-04T01:58:58.479Z,977.30
2022-11-04T01:59:58.495Z,977.31
2022-11-04T02:00:58.543Z,977.27
2022-11-04T02:01:58.645Z,977.30
2022-11-04T02:02:58.466Z,977.37
2022-11-04T02:03:58.474Z,977.41
2022-11-04T02:04:58.453Z,977.42
2022-11-04T02:05:58.430Z,977.40
2022-11-04T02:06:58.455Z,977.46
2022-11-04T02:07:58.491Z,977.40
2022-11-04T02:08:58.446Z,977.47
2022-11-04T02:09:58.502Z,977.44
2022-11-04T02:10:58.459Z,977.50
2022-11-04T02:12:03.943Z,977.48
2022-11-04T02:12:58.408Z,977.50
2022-11-04T02:13:58.383Z,977.53
2022-11-04T02:14:58.407Z,977.58
2022-11-04T02:15:58.367Z,977.59
2022-11-04T02:16:58.364Z,977.60
2022-11-04T02:17:58.405Z,977.56
2022-11-04T02:18:58.346Z,977.64
2022-11-04T02:19:58.358Z,977.69
2022-11-04T02:20:58.347Z,977.74
2022-11-04T02:21:58.350Z,977.68
2022-11-04T02:22:58.414Z,977.73
2022-11-04T02:23:58.321Z,977.79
2022-11-04T02:24:58.312Z,977.78
2022-11-04T02:25:58.313Z,977.79
2022-11-04T02:26:58.302Z,977.83
2022-11-04T02:27:58.314Z,977.86
2022-11-04T02:28:58.328Z,977.77
2022-11-04T02:29:58.291Z,977.87
2022-11-04T02:30:58.285Z,977.95
2022-11-04T02:31:58.325Z,977.88
2022-11-04T02:32:58.252Z,977.89
2022-11-04T02:33:58.283Z,977.91
2022-11-04T02:34:58.265Z,977.89
2022-11-04T02:35:58.247Z,977.98
2022-11-04T02:36:58.262Z,977.95
2022-11-04T02:37:58.362Z,977.93
2022-11-04T02:38:58.248Z,977.95
2022-11-04T02:39:58.248Z,977.98
2022-11-04T02:40:58.217Z,978.04
2022-11-04T02:41:58.212Z,978.04
2022-11-04T02:42:58.202Z,978.07
2022-11-04T02:43:58.200Z,978.03
2022-11-04T02:44:58.212Z,978.03
2022-11-04T02:45:58.752Z,978.09
2022-11-04T02:46:58.241Z,978.02
2022-11-04T02:47:58.161Z,978.19
2022-11-04T02:48:59.162Z,978.10
2022-11-04T02:49:58.145Z,978.05
2022-11-04T02:50:58.204Z,978.20
2022-11-04T02:51:58.162Z,978.19
2022-11-04T02:52:58.140Z,978.20
2022-11-04T02:53:58.137Z,978.20
2022-11-04T02:54:58.159Z,978.10
2022-11-04T02:55:58.160Z,978.09
2022-11-04T02:56:58.107Z,978.18
2022-11-04T02:57:58.121Z,978.19
2022-11-04T02:58:58.188Z,978.23
2022-11-04T02:59:58.104Z,978.24
2022-11-04T03:00:58.158Z,978.25
2022-11-04T03:01:58.224Z,978.21
2022-11-04T03:02:58.124Z,978.27
2022-11-04T03:03:58.079Z,978.31
2022-11-04T03:04:58.087Z,978.34
2022-11-04T03:05:58.067Z,978.38
2022-11-04T03:06:58.128Z,978.39
2022-11-04T03:07:58.119Z,978.44
2022-11-04T03:08:58.053Z,978.36
2022-11-04T03:09:58.039Z,978.38
2022-11-04T03:10:58.067Z,978.39
2022-11-04T03:11:58.031Z,978.39
2022-11-04T03:12:58.052Z,978.39
2022-11-04T03:13:58.019Z,978.53
2022-11-04T03:14:58.004Z,978.49
2022-11-04T03:15:57.995Z,978.47
2022-11-04T03:16:58.038Z,978.49
2022-11-04T03:17:58.008Z,978.45
2022-11-04T03:18:57.969Z,978.54
2022-11-04T03:19:57.981Z,978.56
2022-11-04T03:20:57.945Z,978.51
2022-11-04T03:21:57.956Z,978.53
2022-11-04T03:22:57.968Z,978.63
2022-11-04T03:23:58.085Z,978.57
2022-11-04T03:24:57.926Z,978.60
2022-11-04T03:25:58.927Z,978.57
2022-11-04T03:26:57.937Z,978.57
2022-11-04T03:27:57.932Z,978.52
2022-11-04T03:28:57.942Z,978.49
2022-11-04T03:29:57.913Z,978.51
2022-11-04T03:30:57.890Z,978.48
2022-11-04T03:31:57.892Z,978.50
2022-11-04T03:32:57.900Z,978.64
2022-11-04T03:33:57.877Z,978.55
2022-11-04T03:34:57.914Z,978.64
2022-11-04T03:35:57.858Z,978.62
2022-11-04T03:36:57.851Z,978.64
2022-11-04T03:37:57.871Z,978.66
2022-11-04T03:38:57.856Z,978.69
2022-11-04T03:39:57.859Z,978.67
2022-11-04T03:40:57.838Z,978.66
2022-11-04T03:41:57.836Z,978.71
2022-11-04T03:42:57.828Z,978.68
2022-11-04T03:43:57.864Z,978.79
2022-11-04T03:44:57.790Z,978.70
2022-11-04T03:45:57.829Z,978.79
2022-11-04T03:46:57.805Z,978.80
2022-11-04T03:47:57.805Z,978.77
2022-11-04T03:48:57.777Z,978.77
2022-11-04T03:49:57.777Z,978.83
2022-11-04T03:50:57.879Z,978.86
2022-11-04T03:51:57.800Z,978.87
2022-11-04T03:52:57.812Z,978.89
2022-11-04T03:53:57.773Z,978.97
2022-11-04T03:54:57.768Z,978.96
2022-11-04T03:55:57.729Z,978.94
2022-11-04T03:56:57.766Z,978.99
2022-11-04T03:57:57.759Z,979.05
2022-11-04T03:58:57.710Z,979.07
2022-11-04T03:59:57.701Z,979.13
2022-11-04T04:00:57.744Z,979.11
2022-11-04T04:01:58.007Z,979.21
2022-11-04T04:02:57.721Z,979.14
2022-11-04T04:03:57.679Z,979.12
2022-11-04T04:04:57.678Z,979.09
2022-11-04T04:05:57.673Z,979.01
2022-11-04T04:06:57.658Z,979.00
2022-11-04T04:07:57.704Z,978.98
2022-11-04T04:08:57.659Z,979.02
2022-11-04T04:09:57.645Z,979.15
2022-11-04T04:10:57.645Z,979.07
2022-11-04T04:11:57.650Z,979.14
2022-11-04T04:12:57.733Z,979.06
2022-11-04T04:13:57.632Z,979.12
2022-11-04T04:14:57.627Z,979.17
2022-11-04T04:15:57.592Z,979.18
2022-11-04T04:16:57.624Z,979.17
2022-11-04T04:17:57.624Z,979.18
2022-11-04T04:18:58.764Z,979.22
2022-11-04T04:19:57.582Z,979.19
2022-11-04T04:20:57.576Z,979.24
2022-11-04T04:21:57.565Z,979.26
2022-11-04T04:22:57.555Z,979.21
2022-11-04T04:23:57.576Z,979.22
2022-11-04T04:24:57.549Z,979.23
2022-11-04T04:25:57.541Z,979.23
2022-11-04T04:26:57.530Z,979.19
2022-11-04T04:27:57.508Z,979.25
2022-11-04T04:28:58.623Z,979.27
2022-11-04T04:29:57.560Z,979.22
2022-11-04T04:31:00.178Z,979.20
2022-11-04T04:31:58.493Z,979.08
2022-11-04T04:32:57.503Z,979.06
2022-11-04T04:33:57.497Z,979.03
2022-11-04T04:34:57.516Z,979.08
2022-11-04T04:35:57.475Z,979.10
2022-11-04T04:36:57.473Z,979.13
2022-11-04T04:37:57.473Z,979.12
2022-11-04T04:38:57.455Z,979.11
2022-11-04T04:39:57.492Z,979.12
2022-11-04T04:41:57.446Z,979.19
2022-11-04T04:42:57.439Z,979.21
2022-11-04T04:43:57.434Z,979.20
2022-11-04T04:44:57.417Z,979.22
2022-11-04T04:45:57.447Z,979.21
2022-11-04T04:46:57.426Z,979.15
2022-11-04T04:47:57.404Z,979.15
2022-11-04T04:48:57.454Z,979.09
2022-11-04T04:49:57.399Z,979.10
2022-11-04T04:50:58.494Z,979.17
2022-11-04T04:51:57.378Z,979.20
2022-11-04T04:52:57.370Z,979.24
2022-11-04T04:53:57.371Z,979.26
2022-11-04T04:54:57.877Z,979.35
2022-11-04T04:55:57.362Z,979.39
2022-11-04T04:56:57.380Z,979.46
2022-11-04T04:57:57.340Z,979.63
2022-11-04T04:58:58.339Z,979.65
2022-11-04T04:59:57.338Z,979.67
2022-11-04T05:00:57.416Z,979.64
2022-11-04T05:01:57.536Z,979.64
2022-11-04T05:02:57.333Z,979.66
2022-11-04T05:03:57.311Z,979.57
2022-11-04T05:04:57.313Z,979.56
2022-11-04T05:05:58.845Z,979.56
2022-11-04T05:06:57.298Z,979.45
2022-11-04T05:07:57.307Z,979.42
2022-11-04T05:08:57.280Z,979.31
2022-11-04T05:09:57.263Z,979.21
2022-11-04T05:10:57.253Z,979.23
2022-11-04T05:11:57.267Z,979.32
2022-11-04T05:12:57.279Z,979.32
2022-11-04T05:13:57.257Z,979.32
2022-11-04T05:14:57.233Z,979.37
2022-11-04T05:15:57.231Z,979.40
2022-11-04T05:16:57.234Z,979.31
2022-11-04T05:17:57.220Z,979.41
2022-11-04T05:18:57.264Z,979.39
2022-11-04T05:19:58.894Z,979.53
2022-11-04T05:20:57.223Z,979.50
2022-11-04T05:21:57.191Z,979.59
2022-11-04T05:22:57.195Z,979.68
2022-11-04T05:23:57.197Z,979.76
2022-11-04T05:24:57.207Z,979.81
2022-11-04T05:25:57.172Z,979.84
2022-11-04T05:26:57.171Z,979.77
2022-11-04T05:27:57.194Z,979.76
2022-11-04T05:28:57.165Z,979.76
2022-11-04T05:29:57.212Z,979.71
2022-11-04T05:30:57.149Z,979.62
2022-11-04T05:31:57.161Z,979.61
2022-11-04T05:33:00.029Z,979.60
2022-11-04T05:33:58.115Z,979.58
2022-11-04T05:34:57.237Z,979.69
2022-11-04T05:35:57.139Z,979.77
2022-11-04T05:36:57.186Z,979.79
2022-11-04T05:37:57.091Z,979.81
2022-11-04T05:38:57.154Z,979.84
2022-11-04T05:39:57.077Z,979.91
2022-11-04T05:40:57.102Z,979.83
2022-11-04T05:41:57.073Z,979.82
2022-11-04T05:42:57.076Z,979.75
2022-11-04T05:43:57.075Z,979.81
2022-11-04T05:44:57.053Z,979.75
2022-11-04T05:45:57.139Z,979.81
2022-11-04T05:47:03.559Z,979.83
2022-11-04T05:47:57.051Z,979.83
2022-11-04T05:48:57.018Z,980.01
2022-11-04T05:49:57.057Z,979.94
2022-11-04T05:50:57.017Z,979.98
2022-11-04T05:51:57.106Z,980.05
2022-11-04T05:52:56.985Z,980.09
2022-11-04T05:53:56.987Z,980.11
2022-11-04T05:54:56.996Z,980.05
2022-11-04T05:55:56.987Z,980.06
2022-11-04T05:56:57.244Z,980.07
2022-11-04T05:57:57.011Z,979.97
2022-11-04T05:58:56.957Z,979.98
2022-11-04T05:59:56.960Z,980.00
2022-11-04T06:00:56.964Z,979.98
2022-11-04T06:01:57.094Z,979.98
2022-11-04T06:02:57.024Z,980.01
2022-11-04T06:03:57.074Z,980.05
2022-11-04T06:04:56.910Z,980.04
2022-11-04T06:05:56.913Z,980.11
2022-11-04T06:06:56.927Z,980.08
2022-11-04T06:07:56.957Z,980.15
2022-11-04T06:08:56.881Z,980.05
2022-11-04T06:09:56.885Z,980.07
2022-11-04T06:10:56.892Z,980.14
2022-11-04T06:11:56.875Z,980.02
2022-11-04T06:12:56.881Z,980.02
2022-11-04T06:13:56.974Z,980.04
2022-11-04T06:14:56.863Z,979.95
2022-11-04T06:15:56.850Z,979.93
2022-11-04T06:16:56.901Z,979.99
2022-11-04T06:17:56.844Z,979.97
2022-11-04T06:19:01.475Z,979.95
2022-11-04T06:19:57.823Z,980.01
2022-11-04T06:20:56.826Z,979.98
2022-11-04T06:21:56.898Z,980.00
2022-11-04T06:22:56.797Z,979.91
2022-11-04T06:23:56.800Z,979.98
2022-11-04T06:24:56.868Z,980.01
2022-11-04T06:25:56.807Z,979.93
2022-11-04T06:26:56.774Z,980.05
2022-11-04T06:27:57.783Z,980.04
2022-11-04T06:28:56.781Z,980.07
2022-11-04T06:29:56.833Z,980.04
2022-11-04T06:30:56.756Z,980.03
2022-11-04T06:31:56.742Z,980.03
2022-11-04T06:32:56.746Z,980.03
2022-11-04T06:33:56.748Z,979.99
2022-11-04T06:34:56.733Z,979.98
2022-11-04T06:35:56.771Z,980.07
2022-11-04T06:36:56.718Z,980.05
2022-11-04T06:37:56.711Z,980.03
2022-11-04T06:39:03.060Z,980.14
2022-11-04T06:39:58.726Z,980.19
2022-11-04T06:40:56.860Z,980.18
2022-11-04T06:41:59.536Z,980.21
2022-11-04T06:42:56.685Z,980.22
2022-11-04T06:43:56.671Z,980.22
2022-11-04T06:44:56.694Z,980.14
2022-11-04T06:45:56.675Z,980.13
2022-11-04T06:46:56.702Z,980.12
2022-11-04T06:47:56.648Z,980.09
2022-11-04T06:48:56.650Z,980.08
2022-11-04T06:49:56.640Z,980.03
2022-11-04T06:50:56.618Z,980.00
2022-11-04T06:51:57.661Z,979.99
2022-11-04T06:52:56.611Z,980.04
2022-11-04T06:53:56.613Z,980.06
2022-11-04T06:54:56.604Z,980.16
2022-11-04T06:55:56.595Z,980.15
2022-11-04T06:56:56.604Z,980.22
2022-11-04T06:57:56.594Z,980.27
2022-11-04T06:58:56.573Z,980.31
2022-11-04T06:59:56.583Z,980.28
2022-11-04T07:00:56.620Z,980.34
2022-11-04T07:01:56.767Z,980.38
2022-11-04T07:02:56.603Z,980.39
2022-11-04T07:03:56.551Z,980.49
2022-11-04T07:05:56.537Z,980.56
2022-11-04T07:06:56.537Z,980.49
2022-11-04T07:07:56.540Z,980.55
2022-11-04T07:08:56.515Z,980.46
2022-11-04T07:09:56.497Z,980.56
2022-11-04T07:10:56.500Z,980.57
2022-11-04T07:11:56.492Z,980.59
2022-11-04T07:12:56.539Z,980.62
2022-11-04T07:13:57.497Z,980.59
2022-11-04T07:14:56.491Z,980.66
2022-11-04T07:15:56.470Z,980.60
2022-11-04T07:16:56.491Z,980.65
2022-11-04T07:17:56.476Z,980.66
2022-11-04T07:18:56.473Z,980.65
2022-11-04T07:19:56.499Z,980.72
2022-11-04T07:20:56.815Z,980.79
2022-11-04T07:21:56.436Z,980.77
2022-11-04T07:22:56.437Z,980.73
2022-11-04T07:23:56.430Z,980.77
2022-11-04T07:24:56.438Z,980.74
2022-11-04T07:25:56.421Z,980.79
2022-11-04T07:26:56.464Z,980.74
2022-11-04T07:27:59.458Z,980.83
2022-11-04T07:28:57.388Z,980.83
2022-11-04T07:29:56.401Z,980.82
2022-11-04T07:30:56.382Z,980.88
2022-11-04T07:31:56.407Z,980.85
2022-11-04T07:32:56.435Z,980.87
2022-11-04T07:33:56.362Z,980.84
2022-11-04T07:34:56.372Z,980.83
2022-11-04T07:35:57.155Z,980.85
2022-11-04T07:36:57.501Z,980.77
2022-11-04T07:37:56.327Z,980.77
2022-11-04T07:38:56.333Z,980.78
2022-11-04T07:39:56.336Z,980.75
2022-11-04T07:40:56.930Z,980.70
2022-11-04T07:41:59.495Z,980.75
2022-11-04T07:42:57.431Z,980.80
2022-11-04T07:43:56.304Z,980.75
2022-11-04T07:44:56.309Z,980.78
2022-11-04T07:45:56.305Z,980.84
2022-11-04T07:46:56.292Z,980.86
2022-11-04T07:47:56.291Z,980.91
2022-11-04T07:48:56.345Z,980.94
2022-11-04T07:49:56.363Z,980.99
2022-11-04T07:50:56.265Z,981.02
2022-11-04T07:51:56.267Z,981.09
2022-11-04T07:52:56.230Z,981.20
2022-11-04T07:53:56.266Z,981.25
2022-11-04T07:54:56.242Z,981.24
2022-11-04T07:55:56.251Z,981.31
2022-11-04T07:56:56.217Z,981.24
2022-11-04T07:57:56.228Z,981.33
2022-11-04T07:58:56.214Z,981.29
2022-11-04T07:59:56.227Z,981.29
2022-11-04T08:00:56.184Z,981.34
2022-11-04T08:01:56.302Z,981.31
2022-11-04T08:02:56.261Z,981.31
2022-11-04T08:03:56.196Z,981.29
2022-11-04T08:04:56.305Z,981.32
2022-11-04T08:05:56.177Z,981.30
2022-11-04T08:06:56.163Z,981.34
2022-11-04T08:07:56.160Z,981.41
2022-11-04T08:08:56.176Z,981.37
2022-11-04T08:09:56.135Z,981.20
2022-11-04T08:10:56.264Z,981.19
2022-11-04T08:11:56.162Z,981.25
2022-11-04T08:12:56.143Z,981.24
2022-11-04T08:13:56.147Z,981.24
2022-11-04T08:14:56.110Z,981.26
2022-11-04T08:15:56.159Z,981.24
2022-11-04T08:16:56.128Z,981.30
2022-11-04T08:17:56.125Z,981.28
2022-11-04T08:18:56.178Z,981.28
2022-11-04T08:19:56.092Z,981.32
2022-11-04T08:20:56.083Z,981.30
2022-11-04T08:21:56.121Z,981.28
2022-11-04T08:22:56.079Z,981.35
2022-11-04T08:23:56.077Z,981.32
2022-11-04T08:24:56.049Z,981.29
2022-11-04T08:25:56.055Z,981.23
2022-11-04T08:26:56.087Z,981.25
2022-11-04T08:28:00.691Z,981.17
2022-11-04T08:28:58.048Z,981.14
2022-11-04T08:29:56.029Z,981.20
2022-11-04T08:30:56.016Z,981.21
2022-11-04T08:31:56.026Z,981.21
2022-11-04T08:32:56.037Z,981.25
2022-11-04T08:33:56.016Z,981.22
2022-11-04T08:34:56.012Z,981.23
2022-11-04T08:35:55.991Z,981.27
2022-11-04T08:36:55.994Z,981.09
2022-11-04T08:37:56.099Z,981.15
2022-11-04T08:38:55.981Z,981.11
2022-11-04T08:39:55.949Z,981.06
2022-11-04T08:40:59.721Z,981.13
2022-11-04T08:41:57.422Z,981.09
2022-11-04T08:42:55.930Z,981.11
2022-11-04T08:43:55.958Z,981.10
2022-11-04T08:44:55.926Z,981.11
2022-11-04T08:45:55.917Z,981.08
2022-11-04T08:46:55.933Z,981.07
2022-11-04T08:47:57.358Z,981.04
2022-11-04T08:48:56.043Z,981.07
2022-11-04T08:49:55.951Z,981.00
2022-11-04T08:50:55.887Z,981.05
2022-11-04T08:51:55.885Z,980.95
2022-11-04T08:52:55.869Z,981.02
2022-11-04T08:53:56.358Z,980.92
2022-11-04T08:54:57.470Z,981.01
2022-11-04T08:55:55.917Z,980.95
2022-11-04T08:56:55.845Z,980.86
2022-11-04T08:57:55.827Z,980.94
2022-11-04T08:58:55.816Z,980.89
2022-11-04T08:59:56.012Z,980.91
2022-11-04T09:00:55.802Z,980.96
2022-11-04T09:01:55.876Z,980.91
2022-11-04T09:02:55.796Z,980.94
2022-11-04T09:03:55.819Z,980.84
2022-11-04T09:04:55.913Z,980.83
2022-11-04T09:05:55.775Z,980.82
2022-11-04T09:06:55.774Z,980.77
2022-11-04T09:07:55.769Z,980.73
2022-11-04T09:08:55.770Z,980.75
2022-11-04T09:09:55.784Z,980.70
2022-11-04T09:10:55.912Z,980.68
2022-11-04T09:11:55.826Z,980.78
2022-11-04T09:12:55.746Z,980.79
2022-11-04T09:13:55.751Z,980.73
2022-11-04T09:14:55.737Z,980.70
2022-11-04T09:15:55.838Z,980.72
2022-11-04T09:16:55.742Z,980.74
2022-11-04T09:17:55.717Z,980.66
2022-11-04T09:18:55.702Z,980.82
2022-11-04T09:19:55.726Z,980.90
2022-11-04T09:20:55.695Z,980.96
2022-11-04T09:21:55.800Z,980.89
2022-11-04T09:22:55.692Z,980.91
2022-11-04T09:23:55.717Z,980.91
2022-11-04T09:24:55.676Z,980.84
2022-11-04T09:25:55.644Z,980.94
2022-11-04T09:26:55.674Z,980.95
2022-11-04T09:27:55.719Z,980.93
2022-11-04T09:28:55.642Z,981.01
2022-11-04T09:29:55.626Z,980.96
2022-11-04T09:30:55.632Z,981.04
2022-11-04T09:31:55.653Z,981.00
2022-11-04T09:32:55.791Z,981.04
2022-11-04T09:33:55.772Z,981.08
2022-11-04T09:34:56.757Z,981.05
2022-11-04T09:35:55.645Z,981.07
2022-11-04T09:36:55.601Z,981.10
2022-11-04T09:37:55.709Z,981.13
2022-11-04T09:38:55.591Z,981.18
2022-11-04T09:39:55.707Z,981.18
2022-11-04T09:40:55.584Z,981.16
2022-11-04T09:41:55.580Z,981.20
2022-11-04T09:42:55.587Z,981.21
2022-11-04T09:43:55.773Z,981.17
2022-11-04T09:45:23.073Z,981.17
2022-11-04T09:45:57.558Z,981.20
2022-11-04T09:46:55.555Z,981.24
2022-11-04T09:47:55.555Z,981.22
2022-11-04T09:48:55.580Z,981.30
2022-11-04T09:49:55.532Z,981.23
2022-11-04T09:50:55.498Z,981.16
2022-11-04T09:51:56.130Z,981.29
2022-11-04T09:52:56.520Z,981.25
2022-11-04T09:53:55.507Z,981.24
2022-11-04T09:54:55.537Z,981.29
2022-11-04T09:55:55.509Z,981.32
2022-11-04T09:56:55.500Z,981.33
2022-11-04T09:57:55.529Z,981.31
2022-11-04T09:58:55.463Z,981.34
2022-11-04T09:59:55.790Z,981.38
2022-11-04T10:00:55.534Z,981.31
2022-11-04T10:01:55.517Z,981.34
2022-11-04T10:02:55.497Z,981.33
2022-11-04T10:03:55.476Z,981.28
2022-11-04T10:04:55.440Z,981.22
2022-11-04T10:05:55.520Z,981.20
2022-11-04T10:06:55.433Z,981.23
2022-11-04T10:07:55.478Z,981.18
2022-11-04T10:08:55.431Z,981.11
2022-11-04T10:09:55.434Z,981.17
2022-11-04T10:10:55.432Z,981.02
2022-11-04T10:11:55.400Z,981.04
2022-11-04T10:12:55.457Z,981.04
2022-11-04T10:13:55.423Z,980.98
2022-11-04T10:14:55.395Z,980.96
2022-11-04T10:15:55.464Z,980.97
2022-11-04T10:16:55.418Z,980.95
2022-11-04T10:17:55.387Z,980.90
2022-11-04T10:18:55.351Z,980.83
2022-11-04T10:19:55.395Z,980.84
2022-11-04T10:20:55.337Z,980.85
2022-11-04T10:21:55.351Z,980.78
2022-11-04T10:22:55.401Z,980.77
2022-11-04T10:23:55.318Z,980.79
2022-11-04T10:24:55.323Z,980.71
2022-11-04T10:25:55.329Z,980.71
2022-11-04T10:27:00.150Z,980.76
2022-11-04T10:27:57.408Z,980.74
2022-11-04T10:28:55.301Z,980.74
2022-11-04T10:29:55.312Z,980.63
2022-11-04T10:30:55.290Z,980.74
2022-11-04T10:31:55.356Z,980.69
2022-11-04T10:32:55.273Z,980.72
2022-11-04T10:33:55.288Z,980.75
2022-11-04T10:34:55.272Z,980.76
2022-11-04T10:35:55.324Z,980.79
2022-11-04T10:36:55.255Z,980.68
2022-11-04T10:37:55.227Z,980.76
2022-11-04T10:38:55.407Z,980.73
2022-11-04T10:39:55.256Z,980.71
2022-11-04T10:40:55.287Z,980.67
2022-11-04T10:41:55.205Z,980.77
2022-11-04T10:42:55.197Z,980.72
2022-11-04T10:43:55.208Z,980.71
2022-11-04T10:44:55.328Z,980.68
2022-11-04T10:45:55.200Z,980.76
2022-11-04T10:46:55.197Z,980.77
2022-11-04T10:47:55.251Z,980.76
2022-11-04T10:48:55.178Z,980.82
2022-11-04T10:50:26.464Z,980.71
2022-11-04T10:50:56.144Z,980.82
2022-11-04T10:51:56.137Z,980.97
2022-11-04T10:52:55.143Z,980.94
2022-11-04T10:53:55.140Z,980.83
2022-11-04T10:54:55.125Z,980.81
2022-11-04T10:55:55.260Z,980.79
2022-11-04T10:56:55.173Z,980.84
2022-11-04T10:57:55.110Z,980.86
2022-11-04T10:58:55.098Z,980.77
2022-11-04T10:59:55.084Z,980.78
2022-11-04T11:00:55.249Z,980.74
2022-11-04T11:01:55.223Z,980.72
2022-11-04T11:02:55.138Z,980.74
2022-11-04T11:03:55.077Z,980.77
2022-11-04T11:04:55.093Z,980.79
2022-11-04T11:05:55.085Z,980.72
2022-11-04T11:06:55.080Z,980.66
2022-11-04T11:07:55.078Z,980.80
2022-11-04T11:08:55.057Z,980.81
2022-11-04T11:09:55.066Z,980.79
2022-11-04T11:10:55.054Z,980.76
2022-11-04T11:11:55.066Z,980.81
2022-11-04T11:12:55.040Z,980.73
2022-11-04T11:13:55.020Z,980.80
2022-11-04T11:14:55.027Z,980.76
2022-11-04T11:15:55.023Z,980.82
2022-11-04T11:16:55.034Z,980.84
2022-11-04T11:17:55.041Z,980.77
2022-11-04T11:18:55.021Z,980.85
2022-11-04T11:19:55.035Z,980.71
2022-11-04T11:20:56.011Z,980.84
2022-11-04T11:21:54.973Z,980.79
2022-11-04T11:22:56.566Z,980.79
2022-11-04T11:23:54.974Z,980.78
2022-11-04T11:24:54.984Z,980.78
2022-11-04T11:25:54.982Z,980.76
2022-11-04T11:26:54.979Z,980.82
2022-11-04T11:27:55.994Z,980.72
2022-11-04T11:28:58.842Z,980.73
2022-11-04T11:29:55.949Z,980.70
2022-11-04T11:30:54.945Z,980.72
2022-11-04T11:31:54.907Z,980.70
2022-11-04T11:32:55.376Z,980.74
2022-11-04T11:33:55.030Z,980.76
2022-11-04T11:34:54.928Z,980.72
2022-11-04T11:35:54.930Z,980.78
2022-11-04T11:36:54.900Z,980.67
2022-11-04T11:37:54.912Z,980.66
2022-11-04T11:38:54.916Z,980.71
2022-11-04T11:39:54.876Z,980.70
2022-11-04T11:41:23.496Z,980.75
2022-11-04T11:41:55.902Z,980.70
2022-11-04T11:42:54.903Z,980.68
2022-11-04T11:43:54.898Z,980.74
2022-11-04T11:44:54.894Z,980.67
2022-11-04T11:45:54.904Z,980.72
2022-11-04T11:46:54.843Z,980.64
2022-11-04T11:47:54.898Z,980.66
2022-11-04T11:48:54.839Z,980.68
2022-11-04T11:49:54.982Z,980.66
2022-11-04T11:50:54.835Z,980.65
2022-11-04T11:51:54.849Z,980.67
2022-11-04T11:52:54.812Z,980.61
2022-11-04T11:53:54.866Z,980.62
2022-11-04T11:54:54.782Z,980.62
2022-11-04T11:55:54.915Z,980.56
2022-11-04T12:01:03.712Z,980.56
2022-11-04T12:01:54.886Z,980.53
2022-11-04T12:02:55.153Z,980.53
2022-11-04T12:09:56.748Z,980.56
2022-11-04T12:10:54.702Z,980.60
2022-11-04T12:11:54.790Z,980.64
2022-11-04T12:12:54.676Z,980.71
2022-11-04T12:13:54.696Z,980.71
2022-11-04T12:14:54.673Z,980.66
2022-11-04T12:15:54.655Z,980.71
2022-11-04T12:16:54.760Z,980.70
2022-11-04T12:17:54.698Z,980.69
2022-11-04T12:18:54.654Z,980.62
2022-11-04T12:19:54.629Z,980.63
2022-11-04T12:20:54.625Z,980.67
2022-11-04T12:21:54.620Z,980.72
2022-11-04T12:22:54.740Z,980.75
2022-11-04T12:23:54.655Z,980.75
2022-11-04T12:24:54.604Z,980.77
2022-11-04T12:25:54.591Z,980.71
2022-11-04T12:26:54.580Z,980.80
2022-11-04T12:27:54.687Z,980.75
2022-11-04T12:28:54.582Z,980.68
2022-11-04T12:29:54.563Z,980.69
2022-11-04T12:30:54.560Z,980.63
2022-11-04T12:31:54.656Z,980.68
2022-11-04T12:32:54.577Z,980.68
2022-11-04T12:33:54.656Z,980.70
2022-11-04T12:34:54.546Z,980.62
2022-11-04T12:35:54.542Z,980.60
2022-11-04T12:36:54.516Z,980.62
2022-11-04T12:37:54.544Z,980.63
2022-11-04T12:38:54.639Z,980.66
2022-11-04T12:39:54.511Z,980.66
2022-11-04T12:41:18.816Z,980.68